CheckWX is a tool to help pilots better visualize weather data.  It is not intended as a substitute for an official pre-flight weather briefing.

03:17:51 UTC

3LF METAR
Litchfield Municipal Airport
Litchfield, Illinois, USA
Current

23 mins ago

K3LF 270255Z AUTO 09003KT 10SM CLR 20/18 A3007 RMK AO2 T02020182
Observed
May-27 @ 02:55 UTC
Wind
  • 090° at 3 KTS
Visibility
10 SM
Flight Rules
VFR
Cloud Levels
  • Clear skies
Temperature
20°C / 68°F
Dewpoint
18°C / 64°F
Humidity
88%
Altimeter
30.07" Hg
Pressure
1018.32 hPa
Previous

43 mins ago

K3LF 270235Z AUTO 04004KT 10SM CLR 21/18 A3007 RMK AO2 T02050182
Observed
May-27 @ 02:35 UTC
Wind
  • 040° at 4 KTS
Visibility
10 SM
Flight Rules
VFR
Cloud Levels
  • Clear skies
Temperature
21°C / 70°F
Dewpoint
18°C / 64°F
Humidity
83%
Altimeter
30.07" Hg
Pressure
1018.32 hPa
Previous

1 hour ago

K3LF 270215Z AUTO 04003KT 10SM CLR 21/19 A3006 RMK AO2 T02070185
Observed
May-27 @ 02:15 UTC
Wind
  • 040° at 3 KTS
Visibility
10 SM
Flight Rules
VFR
Cloud Levels
  • Clear skies
Temperature
21°C / 70°F
Dewpoint
19°C / 66°F
Humidity
88%
Altimeter
30.06" Hg
Pressure
1017.92 hPa